createdAt,value
2018-09-22T00:01:28.253Z,63.32
2018-09-22T00:03:57.547Z,63.26
2018-09-22T00:06:27.047Z,63.27
2018-09-22T00:08:56.888Z,63.07
2018-09-22T00:11:25.749Z,63.10
2018-09-22T00:13:54.673Z,62.70
2018-09-22T00:16:24.355Z,63.01
2018-09-22T00:18:53.224Z,63.38
2018-09-22T00:21:23.894Z,63.76
2018-09-22T00:23:52.671Z,63.54
2018-09-22T00:26:21.896Z,63.64
2018-09-22T00:28:51.536Z,63.28
2018-09-22T00:31:19.996Z,63.65
2018-09-22T00:33:48.416Z,64.22
2018-09-22T00:36:16.889Z,64.63
2018-09-22T00:38:45.940Z,64.79
2018-09-22T00:41:14.883Z,64.45
2018-09-22T00:43:43.640Z,64.52
2018-09-22T00:46:13.309Z,64.63
2018-09-22T00:48:42.923Z,64.68
2018-09-22T00:51:11.725Z,64.57
2018-09-22T00:53:40.449Z,64.62
2018-09-22T00:56:09.288Z,64.63
2018-09-22T00:58:38.059Z,64.33
2018-09-22T01:01:07.329Z,64.34
2018-09-22T01:03:36.316Z,64.72
2018-09-22T01:06:06.417Z,65.57
2018-09-22T01:08:36.243Z,66.17
2018-09-22T01:11:05.691Z,65.96
2018-09-22T01:13:35.075Z,65.90
2018-09-22T01:16:04.420Z,66.03
2018-09-22T01:18:33.454Z,66.53
2018-09-22T01:21:02.767Z,67.04
2018-09-22T01:23:31.552Z,66.64
2018-09-22T01:26:00.349Z,66.47
2018-09-22T01:28:30.212Z,67.22
2018-09-22T01:30:58.996Z,66.62
2018-09-22T01:33:27.877Z,67.17
2018-09-22T01:35:57.355Z,66.52
2018-09-22T01:38:27.120Z,66.15
2018-09-22T01:40:57.149Z,65.88
2018-09-22T01:43:26.008Z,66.00
2018-09-22T01:45:56.015Z,65.83
2018-09-22T01:48:24.764Z,65.87
2018-09-22T01:50:54.540Z,66.35
2018-09-22T01:53:24.003Z,66.14
2018-09-22T01:55:52.857Z,66.56
2018-09-22T01:58:21.593Z,66.43
2018-09-22T02:00:51.548Z,66.23
2018-09-22T02:03:21.000Z,65.92
2018-09-22T02:05:50.913Z,65.98
2018-09-22T02:08:20.318Z,66.54
2018-09-22T02:10:49.925Z,65.97
2018-09-22T02:13:18.764Z,65.51
2018-09-22T02:15:48.337Z,65.95
2018-09-22T02:18:16.801Z,66.08
2018-09-22T02:20:46.227Z,66.84
2018-09-22T02:23:15.340Z,67.27
2018-09-22T02:25:44.495Z,67.74
2018-09-22T02:28:13.627Z,67.88
2018-09-22T02:30:42.916Z,68.32
2018-09-22T02:33:12.319Z,68.19
2018-09-22T02:35:41.079Z,68.89
2018-09-22T02:38:09.956Z,69.25
2018-09-22T02:40:39.336Z,70.35
2018-09-22T02:43:08.309Z,70.09
2018-09-22T02:45:37.608Z,69.84
2018-09-22T02:48:06.884Z,70.62
2018-09-22T02:50:35.685Z,70.38
2018-09-22T02:53:04.532Z,70.74
2018-09-22T02:55:34.681Z,70.11
2018-09-22T02:58:03.792Z,69.98
2018-09-22T03:00:32.889Z,69.79
2018-09-22T03:03:02.164Z,70.05
2018-09-22T03:05:30.621Z,69.31
2018-09-22T03:07:59.683Z,69.14
2018-09-22T03:10:28.657Z,69.32
2018-09-22T03:12:58.070Z,69.67
2018-09-22T03:15:26.818Z,69.61
2018-09-22T03:17:55.930Z,69.25
2018-09-22T03:20:24.624Z,68.99
2018-09-22T03:22:54.431Z,69.36
2018-09-22T03:25:23.937Z,69.65
2018-09-22T03:27:52.762Z,69.17
2018-09-22T03:30:21.783Z,69.99
2018-09-22T03:32:51.260Z,70.19
2018-09-22T03:35:20.829Z,69.14
2018-09-22T03:37:49.829Z,68.97
2018-09-22T03:40:19.424Z,68.44
2018-09-22T03:42:49.234Z,69.00
2018-09-22T03:45:19.687Z,68.71
2018-09-22T03:47:49.819Z,68.50
2018-09-22T03:50:19.908Z,69.02
2018-09-22T03:52:49.693Z,68.88
2018-09-22T03:55:18.130Z,69.33
2018-09-22T03:57:47.565Z,69.34
2018-09-22T04:00:16.716Z,70.96
2018-09-22T04:02:46.401Z,72.12
2018-09-22T04:05:15.335Z,72.69
2018-09-22T04:07:43.767Z,74.09
2018-09-22T04:10:14.854Z,74.52
2018-09-22T04:12:43.725Z,74.61
2018-09-22T04:15:13.220Z,74.76
2018-09-22T04:17:43.002Z,75.06
2018-09-22T04:20:11.924Z,75.49
2018-09-22T04:22:40.577Z,75.21
2018-09-22T04:25:09.888Z,75.22
2018-09-22T04:27:39.431Z,74.94
2018-09-22T04:30:08.268Z,75.18
2018-09-22T04:32:37.345Z,74.87
2018-09-22T04:35:06.521Z,74.98
2018-09-22T04:37:35.536Z,75.31
2018-09-22T04:40:05.141Z,75.54
2018-09-22T04:42:34.577Z,75.63
2018-09-22T04:45:03.638Z,75.45
2018-09-22T04:47:33.133Z,75.83
2018-09-22T04:50:02.577Z,75.45
2018-09-22T04:52:31.666Z,75.67
2018-09-22T04:55:00.493Z,75.17
2018-09-22T04:57:29.945Z,74.95
2018-09-22T04:59:59.423Z,75.86
2018-09-22T05:02:27.868Z,75.82
2018-09-22T05:04:56.882Z,76.10
2018-09-22T05:07:25.855Z,76.61
2018-09-22T05:09:54.798Z,76.48
2018-09-22T05:12:24.501Z,76.32
2018-09-22T05:14:53.797Z,76.14
2018-09-22T05:17:22.659Z,76.27
2018-09-22T05:19:51.526Z,76.24
2018-09-22T05:22:20.628Z,75.92
2018-09-22T05:24:50.514Z,75.47
2018-09-22T05:27:20.366Z,74.28
2018-09-22T05:29:49.411Z,74.86
2018-09-22T05:32:18.653Z,74.90
2018-09-22T05:34:47.809Z,74.01
2018-09-22T05:37:17.329Z,74.29
2018-09-22T05:39:46.465Z,74.48
2018-09-22T05:42:15.576Z,74.34
2018-09-22T05:44:44.576Z,74.26
2018-09-22T05:47:14.625Z,74.66
2018-09-22T05:49:43.424Z,74.51
2018-09-22T05:52:13.262Z,74.26
2018-09-22T05:54:43.456Z,74.37
2018-09-22T05:57:13.344Z,73.87
2018-09-22T05:59:43.370Z,74.09
2018-09-22T06:02:13.572Z,73.35
2018-09-22T06:04:42.392Z,73.61
2018-09-22T06:07:11.848Z,73.61
2018-09-22T06:09:40.949Z,73.23
2018-09-22T06:12:09.926Z,72.39
2018-09-22T06:14:39.002Z,72.26
2018-09-22T06:17:08.040Z,72.31
2018-09-22T06:19:37.572Z,71.89
2018-09-22T06:22:06.511Z,72.51
2018-09-22T06:24:35.670Z,72.09
2018-09-22T06:27:04.843Z,72.28
2018-09-22T06:29:33.776Z,72.45
2018-09-22T06:32:03.669Z,72.58
2018-09-22T06:34:32.294Z,72.60
2018-09-22T06:37:02.764Z,72.63
2018-09-22T06:39:31.863Z,72.78
2018-09-22T06:42:01.409Z,72.57
2018-09-22T06:44:30.642Z,72.76
2018-09-22T06:46:59.349Z,73.05
2018-09-22T06:49:28.438Z,72.53
2018-09-22T06:51:57.501Z,73.28
2018-09-22T06:54:26.373Z,74.31
2018-09-22T06:56:55.265Z,74.08
2018-09-22T06:59:24.309Z,74.79
2018-09-22T07:01:53.544Z,74.32
2018-09-22T07:04:23.256Z,73.35
2018-09-22T07:06:52.714Z,73.29
2018-09-22T07:09:21.968Z,71.85
2018-09-22T07:11:51.533Z,72.27
2018-09-22T07:14:20.568Z,70.56
2018-09-22T07:16:49.673Z,71.07
2018-09-22T07:19:19.002Z,70.99
2018-09-22T07:21:53.084Z,71.14
2018-09-22T07:24:22.449Z,71.53
2018-09-22T07:26:52.436Z,71.06
2018-09-22T07:29:21.840Z,71.13
2018-09-22T07:31:51.574Z,71.03
2018-09-22T07:34:20.113Z,70.71
2018-09-22T07:36:48.621Z,69.93
2018-09-22T07:39:18.222Z,70.52
2018-09-22T07:41:47.042Z,69.97
2018-09-22T07:44:16.320Z,70.84
2018-09-22T07:46:44.763Z,70.28
2018-09-22T07:49:14.104Z,69.61
2018-09-22T07:51:44.040Z,69.67
2018-09-22T07:54:12.977Z,69.56
2018-09-22T07:56:42.348Z,69.78
2018-09-22T07:59:11.129Z,69.18
2018-09-22T08:01:40.137Z,68.59
2018-09-22T08:04:08.949Z,67.92
2018-09-22T08:06:37.664Z,68.28
2018-09-22T08:09:08.009Z,68.37
2018-09-22T08:11:37.196Z,68.09
2018-09-22T08:14:07.147Z,66.88
2018-09-22T08:16:36.628Z,67.74
2018-09-22T08:19:05.066Z,67.21
2018-09-22T08:21:34.109Z,66.00
2018-09-22T08:24:02.851Z,66.61
2018-09-22T08:26:32.116Z,66.10
2018-09-22T08:29:00.683Z,66.42
2018-09-22T08:31:29.808Z,66.18
2018-09-22T08:33:58.584Z,64.63
2018-09-22T08:36:28.530Z,64.72
2018-09-22T08:38:57.107Z,64.82
2018-09-22T08:41:26.944Z,64.33
2018-09-22T08:43:55.476Z,63.12
2018-09-22T08:46:24.528Z,64.59
2018-09-22T08:48:53.509Z,64.46
2018-09-22T08:51:22.423Z,63.53
2018-09-22T08:53:50.909Z,64.02
2018-09-22T08:56:19.313Z,63.79
2018-09-22T08:58:47.776Z,64.16
2018-09-22T09:01:17.548Z,63.69
2018-09-22T09:03:46.726Z,61.69
2018-09-22T09:06:15.401Z,63.15
2018-09-22T09:08:43.867Z,63.15
2018-09-22T09:11:12.626Z,63.60
2018-09-22T09:13:42.250Z,62.05
2018-09-22T09:16:11.772Z,62.12
2018-09-22T09:18:41.041Z,61.63
2018-09-22T09:21:09.567Z,62.14
2018-09-22T09:23:38.553Z,61.68
2018-09-22T09:26:08.222Z,61.90
2018-09-22T09:28:37.087Z,61.42
2018-09-22T09:31:07.024Z,61.32
2018-09-22T09:33:36.757Z,62.25
2018-09-22T09:36:07.397Z,61.30
2018-09-22T09:38:36.660Z,60.51
2018-09-22T09:41:05.400Z,60.15
2018-09-22T09:43:34.214Z,59.12
2018-09-22T09:46:02.898Z,58.76
2018-09-22T09:48:32.104Z,56.92
2018-09-22T09:51:00.788Z,57.62
2018-09-22T09:53:29.933Z,55.51
2018-09-22T09:55:59.321Z,55.54
2018-09-22T09:58:28.128Z,54.65
2018-09-22T10:00:57.591Z,54.12
2018-09-22T10:03:26.601Z,53.24
2018-09-22T10:05:56.396Z,52.20
2018-09-22T10:08:25.437Z,50.92
2018-09-22T10:10:54.153Z,53.07
2018-09-22T10:13:22.895Z,53.64
2018-09-22T10:15:51.345Z,51.68
2018-09-22T10:18:20.585Z,50.68
2018-09-22T10:20:49.278Z,48.55
2018-09-22T10:23:18.480Z,49.96
2018-09-22T10:25:47.409Z,49.23
2018-09-22T10:28:17.792Z,49.19
2018-09-22T10:30:46.661Z,50.12
2018-09-22T10:33:15.713Z,50.16
2018-09-22T10:35:45.454Z,49.24
2018-09-22T10:38:13.884Z,49.21
2018-09-22T10:40:44.181Z,46.92
2018-09-22T10:43:13.092Z,45.72
2018-09-22T10:45:41.576Z,47.61
2018-09-22T10:48:10.105Z,47.96
2018-09-22T10:50:39.516Z,47.72
2018-09-22T10:53:08.017Z,47.00
2018-09-22T10:55:37.458Z,47.47
2018-09-22T10:58:06.169Z,46.42
2018-09-22T11:00:35.925Z,47.67
2018-09-22T11:03:04.702Z,46.61
2018-09-22T11:05:33.932Z,47.70
2018-09-22T11:08:03.118Z,45.23
2018-09-22T11:10:31.817Z,44.87
2018-09-22T11:13:00.784Z,45.91
2018-09-22T11:15:30.696Z,45.21
2018-09-22T11:17:59.757Z,46.98
2018-09-22T11:20:29.049Z,46.58
2018-09-22T11:22:58.547Z,45.32
2018-09-22T11:25:28.217Z,46.57
2018-09-22T11:27:57.014Z,46.21
2018-09-22T11:30:26.576Z,45.77
2018-09-22T11:32:56.180Z,47.83
2018-09-22T11:35:24.892Z,47.49
2018-09-22T11:37:53.312Z,48.29
2018-09-22T11:40:22.465Z,46.50
2018-09-22T11:42:51.166Z,46.15
2018-09-22T11:45:21.167Z,47.30
2018-09-22T11:47:50.307Z,47.46
2018-09-22T11:50:19.072Z,48.01
2018-09-22T11:52:47.904Z,47.80
2018-09-22T11:55:17.172Z,46.40
2018-09-22T11:57:47.068Z,48.42
2018-09-22T12:00:17.217Z,47.89
2018-09-22T12:02:46.398Z,48.42
2018-09-22T12:05:14.841Z,48.15
2018-09-22T12:07:43.660Z,48.32
2018-09-22T12:10:13.129Z,47.47
2018-09-22T12:12:42.312Z,48.32
2018-09-22T12:15:11.237Z,48.37
2018-09-22T12:17:41.252Z,47.33
2018-09-22T12:20:10.458Z,48.10
2018-09-22T12:22:39.766Z,48.51
2018-09-22T12:25:09.269Z,48.20
2018-09-22T12:27:38.055Z,48.46
2018-09-22T12:30:07.242Z,48.24
2018-09-22T12:32:36.590Z,47.67
2018-09-22T12:35:05.995Z,48.32
2018-09-22T12:37:35.452Z,47.11
2018-09-22T12:40:04.385Z,45.86
2018-09-22T12:42:32.802Z,45.73
2018-09-22T12:45:01.710Z,45.77
2018-09-22T12:47:31.215Z,46.06
2018-09-22T12:50:00.551Z,44.86
2018-09-22T12:52:29.339Z,44.44
2018-09-22T12:54:58.344Z,44.73
2018-09-22T12:57:27.698Z,45.50
2018-09-22T12:59:56.485Z,44.25
2018-09-22T13:02:25.488Z,44.78
2018-09-22T13:04:54.513Z,45.67
2018-09-22T13:07:23.595Z,45.79
2018-09-22T13:09:52.042Z,46.26
2018-09-22T13:12:21.761Z,45.77
2018-09-22T13:14:50.887Z,47.17
2018-09-22T13:17:19.938Z,48.47
2018-09-22T13:19:49.444Z,48.87
2018-09-22T13:22:18.888Z,49.08
2018-09-22T13:24:47.507Z,48.50
2018-09-22T13:27:16.642Z,48.95
2018-09-22T13:29:45.747Z,49.69
2018-09-22T13:32:14.541Z,49.39
2018-09-22T13:34:44.003Z,49.24
2018-09-22T13:37:13.452Z,48.62
2018-09-22T13:39:42.693Z,47.96
2018-09-22T13:42:11.151Z,48.96
2018-09-22T13:44:40.537Z,49.61
2018-09-22T13:47:09.821Z,50.51
2018-09-22T13:49:38.977Z,51.71
2018-09-22T13:52:07.867Z,51.47
2018-09-22T13:54:36.546Z,50.81
2018-09-22T13:57:05.530Z,51.22
2018-09-22T13:59:35.220Z,50.62
2018-09-22T14:02:04.736Z,51.70
2018-09-22T14:04:33.890Z,51.70
2018-09-22T14:07:03.404Z,51.47
2018-09-22T14:09:32.380Z,52.17
2018-09-22T14:12:01.730Z,52.51
2018-09-22T14:14:30.868Z,51.13
2018-09-22T14:16:59.834Z,52.00
2018-09-22T14:19:29.444Z,51.73
2018-09-22T14:21:58.164Z,50.91
2018-09-22T14:24:26.944Z,50.59
2018-09-22T14:26:55.823Z,50.37
2018-09-22T14:29:24.945Z,50.40
2018-09-22T14:31:54.865Z,49.64
2018-09-22T14:34:24.295Z,49.07
2018-09-22T14:36:53.628Z,49.21
2018-09-22T14:39:22.177Z,49.06
2018-09-22T14:41:51.207Z,48.40
2018-09-22T14:44:20.137Z,48.37
2018-09-22T14:46:49.986Z,43.69
2018-09-22T14:49:19.119Z,47.04
2018-09-22T14:51:48.392Z,47.42
2018-09-22T14:54:18.276Z,45.51
2018-09-22T14:56:47.358Z,45.53
2018-09-22T14:59:16.525Z,45.04
2018-09-22T15:01:45.985Z,44.27
2018-09-22T15:04:15.873Z,43.49
2018-09-22T15:06:44.554Z,44.48
2018-09-22T15:09:13.841Z,44.30
2018-09-22T15:11:42.261Z,44.48
2018-09-22T15:14:11.762Z,43.81
2018-09-22T15:16:40.556Z,43.84
2018-09-22T15:19:09.779Z,43.98
2018-09-22T15:21:38.322Z,44.07
2018-09-22T15:24:07.893Z,43.76
2018-09-22T15:26:37.401Z,44.57
2018-09-22T15:29:06.300Z,43.71
2018-09-22T15:31:34.810Z,44.62
2018-09-22T15:34:03.641Z,43.39
2018-09-22T15:36:32.950Z,44.85
2018-09-22T15:39:02.383Z,44.46
2018-09-22T15:41:32.327Z,44.38
2018-09-22T15:44:01.417Z,44.92
2018-09-22T15:46:30.721Z,44.91
2018-09-22T15:48:59.412Z,44.03
2018-09-22T15:51:28.053Z,44.25
2018-09-22T15:53:57.571Z,44.46
2018-09-22T15:56:26.252Z,44.31
2018-09-22T15:58:55.208Z,43.78
2018-09-22T16:01:24.683Z,43.76
2018-09-22T16:03:53.605Z,44.80
2018-09-22T16:06:22.970Z,44.97
2018-09-22T16:08:51.790Z,44.82
2018-09-22T16:11:20.591Z,44.98
2018-09-22T16:13:49.713Z,44.41
2018-09-22T16:16:18.144Z,45.29
2018-09-22T16:18:47.620Z,45.77
2018-09-22T16:21:16.939Z,46.46
2018-09-22T16:23:46.237Z,45.34
2018-09-22T16:26:14.994Z,45.08
2018-09-22T16:28:43.682Z,45.89
2018-09-22T16:31:12.338Z,45.94
2018-09-22T16:33:42.151Z,46.20
2018-09-22T16:36:10.883Z,46.68
2018-09-22T16:38:41.361Z,46.96
2018-09-22T16:41:10.194Z,46.52
2018-09-22T16:43:39.557Z,46.69
2018-09-22T16:46:08.659Z,46.48
2018-09-22T16:48:37.627Z,47.12
2018-09-22T16:51:07.201Z,47.45
2018-09-22T16:53:36.498Z,46.81
2018-09-22T16:56:06.050Z,48.80
2018-09-22T16:58:35.141Z,51.78
2018-09-22T17:01:04.836Z,54.81
2018-09-22T17:03:34.069Z,57.26
2018-09-22T17:06:03.988Z,60.22
2018-09-22T17:08:32.744Z,61.01
2018-09-22T17:11:01.836Z,61.89
2018-09-22T17:13:31.322Z,63.11
2018-09-22T17:16:00.212Z,63.19
2018-09-22T17:18:29.649Z,63.95
2018-09-22T17:20:58.667Z,64.63
2018-09-22T17:23:27.444Z,65.01
2018-09-22T17:25:56.304Z,67.98
2018-09-22T17:28:25.112Z,69.12
2018-09-22T17:30:54.105Z,69.86
2018-09-22T17:33:24.682Z,70.86
2018-09-22T17:35:53.765Z,71.80
2018-09-22T17:38:23.220Z,72.09
2018-09-22T17:40:51.694Z,72.93
2018-09-22T17:43:21.931Z,72.84
2018-09-22T17:45:51.922Z,73.61
2018-09-22T17:48:20.428Z,74.62
2018-09-22T17:50:49.693Z,74.73
2018-09-22T17:53:18.469Z,74.96
2018-09-22T17:55:47.937Z,74.92
2018-09-22T17:58:17.328Z,75.95
2018-09-22T18:00:46.545Z,75.79
2018-09-22T18:03:15.480Z,75.59
2018-09-22T18:05:44.712Z,76.04
2018-09-22T18:08:13.432Z,75.95
2018-09-22T18:10:42.145Z,76.69
2018-09-22T18:13:11.096Z,76.90
2018-09-22T18:15:40.593Z,76.85
2018-09-22T18:18:09.360Z,77.29
2018-09-22T18:20:38.352Z,76.94
2018-09-22T18:23:07.214Z,76.66
2018-09-22T18:25:36.952Z,77.63
2018-09-22T18:28:06.122Z,77.31
2018-09-22T18:30:35.589Z,77.45
2018-09-22T18:33:05.662Z,76.84
2018-09-22T18:35:34.427Z,76.84
2018-09-22T18:38:04.000Z,77.29
2018-09-22T18:40:32.455Z,77.78
2018-09-22T18:43:01.573Z,77.43
2018-09-22T18:45:30.413Z,77.41
2018-09-22T18:47:59.177Z,77.41
2018-09-22T18:50:28.236Z,76.88
2018-09-22T18:52:56.678Z,77.32
2018-09-22T18:55:25.100Z,76.82
2018-09-22T18:57:53.805Z,76.74
2018-09-22T19:00:22.208Z,76.93
2018-09-22T19:02:51.694Z,77.68
2018-09-22T19:05:20.556Z,79.43
2018-09-22T19:07:49.244Z,80.36
2018-09-22T19:10:18.132Z,80.15
2018-09-22T19:12:46.705Z,79.94
2018-09-22T19:15:47.092Z,79.69
2018-09-22T19:18:21.264Z,78.80
2018-09-22T19:20:54.123Z,78.62
2018-09-22T19:23:45.032Z,79.16
2018-09-22T19:26:16.241Z,78.95
2018-09-22T19:28:48.698Z,78.10
2018-09-22T19:31:28.328Z,77.80
2018-09-22T19:34:02.752Z,78.48
2018-09-22T19:36:35.211Z,78.26
2018-09-22T19:39:07.518Z,78.61
2018-09-22T19:41:41.721Z,78.98
2018-09-22T19:44:20.661Z,79.20
2018-09-22T19:46:59.989Z,79.34
2018-09-22T19:49:34.035Z,79.82
2018-09-22T19:52:07.953Z,79.29
2018-09-22T19:54:36.388Z,80.21
2018-09-22T19:57:05.298Z,79.73
2018-09-22T19:59:34.022Z,79.26
2018-09-22T20:02:03.059Z,79.35
2018-09-22T20:04:32.305Z,78.55
2018-09-22T20:07:01.449Z,78.71
2018-09-22T20:09:30.576Z,78.28
2018-09-22T20:11:59.822Z,78.61
2018-09-22T20:14:29.023Z,79.05
2018-09-22T20:16:57.454Z,78.92
2018-09-22T20:19:26.462Z,79.25
2018-09-22T20:21:54.875Z,78.89
2018-09-22T20:24:23.928Z,79.43
2018-09-22T20:26:53.180Z,79.27
2018-09-22T20:29:22.420Z,79.72
2018-09-22T20:31:51.324Z,80.13
2018-09-22T20:34:20.400Z,80.05
2018-09-22T20:36:49.076Z,80.46
2018-09-22T20:39:17.588Z,80.39
2018-09-22T20:41:46.329Z,79.91
2018-09-22T20:44:16.101Z,80.65
2018-09-22T20:46:45.104Z,81.22
2018-09-22T20:49:13.554Z,82.57
2018-09-22T20:51:42.407Z,82.88
2018-09-22T20:54:11.800Z,82.31
2018-09-22T20:56:40.819Z,81.81
2018-09-22T20:59:09.988Z,83.29
2018-09-22T21:01:38.642Z,83.19
2018-09-22T21:04:07.636Z,82.75
2018-09-22T21:06:36.420Z,81.87
2018-09-22T21:09:06.623Z,82.03
2018-09-22T21:11:35.583Z,83.45
2018-09-22T21:14:04.125Z,83.01
2018-09-22T21:16:33.626Z,82.78
2018-09-22T21:19:02.718Z,82.52
2018-09-22T21:21:31.767Z,82.65
2018-09-22T21:24:00.201Z,82.87
2018-09-22T21:26:28.624Z,82.89
2018-09-22T21:28:57.720Z,82.80
2018-09-22T21:31:26.260Z,82.48
2018-09-22T21:33:55.404Z,81.70
2018-09-22T21:36:23.828Z,82.03
2018-09-22T21:38:52.262Z,82.58
2018-09-22T21:41:21.853Z,82.13
2018-09-22T21:43:50.533Z,81.20
2018-09-22T21:46:19.742Z,80.87
2018-09-22T21:48:48.189Z,81.09
2018-09-22T21:51:17.129Z,81.52
2018-09-22T21:53:45.594Z,81.52
2018-09-22T21:56:15.858Z,81.27
2018-09-22T21:58:45.260Z,81.95
2018-09-22T22:01:19.121Z,80.75
2018-09-22T22:03:49.843Z,80.49
2018-09-22T22:06:18.595Z,80.53
2018-09-22T22:08:47.733Z,81.16
2018-09-22T22:11:17.069Z,81.56
2018-09-22T22:13:45.856Z,82.14
2018-09-22T22:16:14.748Z,82.15
2018-09-22T22:18:43.770Z,82.02
2018-09-22T22:21:12.433Z,82.00
2018-09-22T22:23:40.961Z,82.26
2018-09-22T22:26:10.989Z,82.64
2018-09-22T22:28:39.438Z,82.76
2018-09-22T22:31:08.706Z,83.26
2018-09-22T22:33:38.280Z,82.89
2018-09-22T22:36:06.770Z,82.43
2018-09-22T22:38:36.044Z,82.64
2018-09-22T22:41:05.024Z,82.58
2018-09-22T22:43:33.443Z,82.66
2018-09-22T22:46:02.530Z,82.57
2018-09-22T22:48:31.915Z,83.23
2018-09-22T22:51:00.360Z,83.59
2018-09-22T22:53:29.620Z,83.33
2018-09-22T22:55:58.280Z,84.51
2018-09-22T22:58:27.076Z,84.42
2018-09-22T23:00:56.789Z,84.30
2018-09-22T23:03:25.605Z,84.79
2018-09-22T23:05:54.725Z,84.60
2018-09-22T23:08:23.508Z,84.10
2018-09-22T23:10:52.121Z,83.95
2018-09-22T23:13:22.057Z,83.69
2018-09-22T23:15:50.721Z,83.03
2018-09-22T23:18:19.145Z,82.87
2018-09-22T23:20:47.831Z,83.47
2018-09-22T23:23:17.059Z,84.38
2018-09-22T23:25:46.123Z,83.67
2018-09-22T23:28:14.548Z,84.17
2018-09-22T23:30:43.104Z,84.32
2018-09-22T23:33:12.213Z,84.24
2018-09-22T23:35:41.869Z,84.49
2018-09-22T23:38:10.324Z,83.42
2018-09-22T23:40:39.471Z,83.03
2018-09-22T23:43:08.239Z,83.28
2018-09-22T23:45:37.009Z,83.42
2018-09-22T23:48:05.920Z,83.09
2018-09-22T23:50:34.365Z,83.42
2018-09-22T23:53:03.701Z,83.39
2018-09-22T23:55:32.364Z,84.06
2018-09-22T23:58:01.017Z,84.62
